Merle K (Mudhole) Smith Airport Cordova US
ICAO: PACV
IATA:
Category: Medium
Scheduled Services:

Elevation: 54 ft
TransAlt. 18000 ft.

Airport Communications:
ANCHORAGE APP/DEP:133.6
ASOS:134.8
CTAF:123.6
JUNEAU RDO:122.2

PACV Zoom In..

If you have problems with the map follow the link
https://www.worldairports.se/pages/airport.php?
ICAO=PACV

Runways:

(A) RW 09 length 7500 ft width 150 ft
---- / hdg 95

(B) RW 16 length 1899 ft width 30 ft
---- / hdg 162

(C) RW 27 length 7500 ft width 150 ft
ILS 110.70 / hdg 275

(D) RW 34 length 1899 ft width 30 ft
---- / hdg 342

Location; PACV
Day. 08 / Time. 04.53 Zulu
* Altimeter: 29.59
* Temperature: 06° c. 42.8°f.
* Wind from: 090° Speed 19 kn with Gusts up to 26 kn.
Dewpoint: 03° c.
Visibility: 5 Statute Miles.
Clouds: Overcast 3400 ft.
Conditions: Rain.

PACV 080453Z 09019G26KT 5SM RA OVC034 06/03 A2959 RMK AO2 PK WND 11027/0421 SLP020 P0009 T00610028


Wind From 090°
Speed 19 kn.

 
 
jpsmedia worldairports.se 2019   terms of use